sensor_id;sensor_type;location;lat;lon;timestamp;P1;durP1;ratioP1;P2;durP2;ratioP2
20000;SDS011;10161;41.188;-8.642;2023-05-20T00:02:20;6.10;;;4.20;;
20000;SDS011;10161;41.188;-8.642;2023-05-20T00:04:48;6.10;;;4.47;;
20000;SDS011;10161;41.188;-8.642;2023-05-20T00:07:15;8.20;;;5.33;;
20000;SDS011;10161;41.188;-8.642;2023-05-20T00:09:42;7.50;;;5.17;;
20000;SDS011;10161;41.188;-8.642;2023-05-20T00:12:11;9.53;;;6.63;;
20000;SDS011;10161;41.188;-8.642;2023-05-20T00:14:39;9.13;;;6.50;;
20000;SDS011;10161;41.188;-8.642;2023-05-20T00:17:06;8.20;;;6.70;;
20000;SDS011;10161;41.188;-8.642;2023-05-20T00:19:33;10.27;;;6.33;;
20000;SDS011;10161;41.188;-8.642;2023-05-20T00:22:01;8.47;;;6.20;;
20000;SDS011;10161;41.188;-8.642;2023-05-20T00:24:28;10.90;;;6.00;;
20000;SDS011;10161;41.188;-8.642;2023-05-20T00:26:56;8.50;;;5.60;;
20000;SDS011;10161;41.188;-8.642;2023-05-20T00:29:25;11.67;;;5.33;;
20000;SDS011;10161;41.188;-8.642;2023-05-20T00:31:52;5.17;;;4.50;;
20000;SDS011;10161;41.188;-8.642;2023-05-20T00:34:19;7.40;;;4.83;;
20000;SDS011;10161;41.188;-8.642;2023-05-20T00:36:48;10.90;;;5.10;;
20000;SDS011;10161;41.188;-8.642;2023-05-20T00:39:15;5.27;;;4.43;;
20000;SDS011;10161;41.188;-8.642;2023-05-20T00:41:42;5.20;;;4.53;;
20000;SDS011;10161;41.188;-8.642;2023-05-20T00:44:11;6.40;;;4.83;;
20000;SDS011;10161;41.188;-8.642;2023-05-20T00:46:40;7.07;;;4.00;;
20000;SDS011;10161;41.188;-8.642;2023-05-20T00:49:07;4.60;;;4.17;;
20000;SDS011;10161;41.188;-8.642;2023-05-20T00:51:36;5.40;;;4.00;;
20000;SDS011;10161;41.188;-8.642;2023-05-20T00:54:02;5.60;;;4.00;;
20000;SDS011;10161;41.188;-8.642;2023-05-20T00:56:30;4.60;;;3.57;;
20000;SDS011;10161;41.188;-8.642;2023-05-20T00:58:57;4.67;;;3.73;;
20000;SDS011;10161;41.188;-8.642;2023-05-20T01:01:25;4.87;;;3.40;;
20000;SDS011;10161;41.188;-8.642;2023-05-20T01:03:55;3.70;;;2.97;;
20000;SDS011;10161;41.188;-8.642;2023-05-20T01:06:22;5.10;;;3.50;;
20000;SDS011;10161;41.188;-8.642;2023-05-20T01:08:50;3.90;;;3.50;;
20000;SDS011;10161;41.188;-8.642;2023-05-20T01:11:20;4.80;;;3.80;;
20000;SDS011;10161;41.188;-8.642;2023-05-20T01:13:56;3.27;;;2.97;;
20000;SDS011;10161;41.188;-8.642;2023-05-20T01:16:24;3.77;;;3.00;;
20000;SDS011;10161;41.188;-8.642;2023-05-20T01:18:52;3.90;;;3.40;;
20000;SDS011;10161;41.188;-8.642;2023-05-20T01:21:22;4.13;;;3.13;;
20000;SDS011;10161;41.188;-8.642;2023-05-20T01:23:51;3.53;;;3.03;;
20000;SDS011;10161;41.188;-8.642;2023-05-20T01:26:18;4.23;;;3.50;;
20000;SDS011;10161;41.188;-8.642;2023-05-20T01:28:51;4.20;;;3.47;;
20000;SDS011;10161;41.188;-8.642;2023-05-20T01:31:20;4.63;;;2.83;;
20000;SDS011;10161;41.188;-8.642;2023-05-20T01:33:51;2.77;;;2.50;;
20000;SDS011;10161;41.188;-8.642;2023-05-20T01:36:22;4.27;;;2.70;;
20000;SDS011;10161;41.188;-8.642;2023-05-20T01:38:52;3.83;;;3.13;;
20000;SDS011;10161;41.188;-8.642;2023-05-20T01:41:19;3.97;;;3.30;;
20000;SDS011;10161;41.188;-8.642;2023-05-20T01:43:48;5.23;;;3.10;;
20000;SDS011;10161;41.188;-8.642;2023-05-20T01:46:16;3.77;;;3.07;;
20000;SDS011;10161;41.188;-8.642;2023-05-20T01:48:43;3.50;;;3.20;;
20000;SDS011;10161;41.188;-8.642;2023-05-20T01:51:10;6.37;;;3.37;;
20000;SDS011;10161;41.188;-8.642;2023-05-20T01:53:39;4.47;;;3.00;;
20000;SDS011;10161;41.188;-8.642;2023-05-20T01:56:07;6.87;;;3.40;;
20000;SDS011;10161;41.188;-8.642;2023-05-20T01:58:35;5.90;;;3.10;;
20000;SDS011;10161;41.188;-8.642;2023-05-20T02:01:02;3.77;;;2.90;;
20000;SDS011;10161;41.188;-8.642;2023-05-20T02:03:30;4.27;;;3.13;;
20000;SDS011;10161;41.188;-8.642;2023-05-20T02:05:57;7.07;;;3.13;;
20000;SDS011;10161;41.188;-8.642;2023-05-20T02:08:25;3.87;;;3.17;;
20000;SDS011;10161;41.188;-8.642;2023-05-20T02:10:53;3.23;;;2.93;;
20000;SDS011;10161;41.188;-8.642;2023-05-20T02:13:22;3.20;;;2.90;;
20000;SDS011;10161;41.188;-8.642;2023-05-20T02:15:49;6.23;;;3.40;;
20000;SDS011;10161;41.188;-8.642;2023-05-20T02:18:18;6.67;;;4.00;;
20000;SDS011;10161;41.188;-8.642;2023-05-20T02:20:45;6.10;;;3.77;;
20000;SDS011;10161;41.188;-8.642;2023-05-20T02:23:12;4.93;;;3.43;;
20000;SDS011;10161;41.188;-8.642;2023-05-20T02:25:40;5.10;;;3.80;;
20000;SDS011;10161;41.188;-8.642;2023-05-20T02:28:07;6.07;;;3.70;;
20000;SDS011;10161;41.188;-8.642;2023-05-20T02:30:37;5.57;;;3.03;;
20000;SDS011;10161;41.188;-8.642;2023-05-20T02:33:06;4.40;;;3.67;;
20000;SDS011;10161;41.188;-8.642;2023-05-20T02:35:33;4.23;;;3.63;;
20000;SDS011;10161;41.188;-8.642;2023-05-20T02:38:01;4.33;;;3.47;;
20000;SDS011;10161;41.188;-8.642;2023-05-20T02:40:29;6.60;;;3.33;;
20000;SDS011;10161;41.188;-8.642;2023-05-20T02:42:57;5.33;;;3.50;;
20000;SDS011;10161;41.188;-8.642;2023-05-20T02:45:27;6.60;;;3.10;;
20000;SDS011;10161;41.188;-8.642;2023-05-20T02:47:55;5.57;;;3.27;;
20000;SDS011;10161;41.188;-8.642;2023-05-20T02:50:22;4.40;;;3.33;;
20000;SDS011;10161;41.188;-8.642;2023-05-20T02:52:50;6.27;;;3.50;;
20000;SDS011;10161;41.188;-8.642;2023-05-20T02:55:17;3.87;;;3.10;;
20000;SDS011;10161;41.188;-8.642;2023-05-20T02:57:45;3.30;;;3.00;;
20000;SDS011;10161;41.188;-8.642;2023-05-20T03:00:12;6.87;;;3.33;;
20000;SDS011;10161;41.188;-8.642;2023-05-20T03:02:41;3.07;;;2.77;;
20000;SDS011;10161;41.188;-8.642;2023-05-20T03:05:10;3.40;;;2.90;;
20000;SDS011;10161;41.188;-8.642;2023-05-20T03:07:37;3.70;;;2.87;;
20000;SDS011;10161;41.188;-8.642;2023-05-20T03:10:05;4.83;;;3.10;;
20000;SDS011;10161;41.188;-8.642;2023-05-20T03:12:33;12.80;;;2.93;;
20000;SDS011;10161;41.188;-8.642;2023-05-20T03:15:00;5.90;;;3.40;;
20000;SDS011;10161;41.188;-8.642;2023-05-20T03:17:27;3.70;;;3.37;;
20000;SDS011;10161;41.188;-8.642;2023-05-20T03:19:56;7.00;;;3.03;;
20000;SDS011;10161;41.188;-8.642;2023-05-20T03:22:25;4.30;;;3.20;;
20000;SDS011;10161;41.188;-8.642;2023-05-20T03:24:51;6.60;;;3.20;;
20000;SDS011;10161;41.188;-8.642;2023-05-20T03:27:19;6.07;;;3.40;;
20000;SDS011;10161;41.188;-8.642;2023-05-20T03:29:46;4.77;;;3.20;;
20000;SDS011;10161;41.188;-8.642;2023-05-20T03:32:14;5.17;;;3.20;;
20000;SDS011;10161;41.188;-8.642;2023-05-20T03:34:41;6.50;;;3.30;;
20000;SDS011;10161;41.188;-8.642;2023-05-20T03:37:08;4.07;;;3.10;;
20000;SDS011;10161;41.188;-8.642;2023-05-20T03:39:38;5.63;;;3.63;;
20000;SDS011;10161;41.188;-8.642;2023-05-20T03:42:06;3.30;;;3.00;;
20000;SDS011;10161;41.188;-8.642;2023-05-20T03:44:33;4.67;;;3.43;;
20000;SDS011;10161;41.188;-8.642;2023-05-20T03:47:00;3.83;;;2.57;;
20000;SDS011;10161;41.188;-8.642;2023-05-20T03:49:27;5.33;;;2.80;;
20000;SDS011;10161;41.188;-8.642;2023-05-20T03:51:54;3.10;;;2.80;;
20000;SDS011;10161;41.188;-8.642;2023-05-20T03:54:23;4.77;;;3.13;;
20000;SDS011;10161;41.188;-8.642;2023-05-20T03:56:52;5.13;;;3.10;;
20000;SDS011;10161;41.188;-8.642;2023-05-20T03:59:20;5.70;;;2.70;;
20000;SDS011;10161;41.188;-8.642;2023-05-20T04:01:47;6.93;;;2.93;;
20000;SDS011;10161;41.188;-8.642;2023-05-20T04:04:14;3.50;;;2.90;;
20000;SDS011;10161;41.188;-8.642;2023-05-20T04:06:42;4.43;;;3.27;;
20000;SDS011;10161;41.188;-8.642;2023-05-20T04:09:12;3.87;;;3.00;;
20000;SDS011;10161;41.188;-8.642;2023-05-20T04:11:38;3.33;;;2.77;;
20000;SDS011;10161;41.188;-8.642;2023-05-20T04:14:07;3.70;;;3.00;;
20000;SDS011;10161;41.188;-8.642;2023-05-20T04:16:34;3.40;;;2.87;;
20000;SDS011;10161;41.188;-8.642;2023-05-20T04:19:02;4.27;;;3.00;;
20000;SDS011;10161;41.188;-8.642;2023-05-20T04:21:29;3.60;;;2.73;;
20000;SDS011;10161;41.188;-8.642;2023-05-20T04:23:56;6.83;;;3.00;;
20000;SDS011;10161;41.188;-8.642;2023-05-20T04:26:23;3.97;;;3.00;;
20000;SDS011;10161;41.188;-8.642;2023-05-20T04:28:51;6.23;;;3.00;;
20000;SDS011;10161;41.188;-8.642;2023-05-20T04:31:21;3.50;;;2.70;;
20000;SDS011;10161;41.188;-8.642;2023-05-20T04:33:50;2.57;;;2.30;;
20000;SDS011;10161;41.188;-8.642;2023-05-20T04:36:19;4.57;;;2.73;;
20000;SDS011;10161;41.188;-8.642;2023-05-20T04:38:46;2.50;;;2.30;;
20000;SDS011;10161;41.188;-8.642;2023-05-20T04:41:13;5.50;;;3.00;;
20000;SDS011;10161;41.188;-8.642;2023-05-20T04:43:41;3.27;;;2.73;;
20000;SDS011;10161;41.188;-8.642;2023-05-20T04:46:08;4.60;;;3.00;;
20000;SDS011;10161;41.188;-8.642;2023-05-20T04:48:36;3.50;;;2.50;;
20000;SDS011;10161;41.188;-8.642;2023-05-20T04:51:03;4.53;;;2.50;;
20000;SDS011;10161;41.188;-8.642;2023-05-20T04:53:31;5.53;;;2.77;;
20000;SDS011;10161;41.188;-8.642;2023-05-20T04:56:01;3.90;;;2.80;;
20000;SDS011;10161;41.188;-8.642;2023-05-20T04:58:28;3.93;;;2.97;;
20000;SDS011;10161;41.188;-8.642;2023-05-20T05:00:58;3.27;;;2.97;;
20000;SDS011;10161;41.188;-8.642;2023-05-20T05:03:26;5.50;;;2.90;;
20000;SDS011;10161;41.188;-8.642;2023-05-20T05:05:56;4.73;;;3.20;;
20000;SDS011;10161;41.188;-8.642;2023-05-20T05:08:23;4.33;;;3.03;;
20000;SDS011;10161;41.188;-8.642;2023-05-20T05:10:51;3.37;;;3.07;;
20000;SDS011;10161;41.188;-8.642;2023-05-20T05:13:18;4.97;;;2.60;;
20000;SDS011;10161;41.188;-8.642;2023-05-20T05:15:46;3.27;;;2.70;;
20000;SDS011;10161;41.188;-8.642;2023-05-20T05:18:13;6.13;;;3.20;;
20000;SDS011;10161;41.188;-8.642;2023-05-20T05:20:42;5.10;;;2.70;;
20000;SDS011;10161;41.188;-8.642;2023-05-20T05:23:12;4.50;;;2.80;;
20000;SDS011;10161;41.188;-8.642;2023-05-20T05:25:40;3.73;;;2.80;;
20000;SDS011;10161;41.188;-8.642;2023-05-20T05:28:07;4.63;;;3.23;;
20000;SDS011;10161;41.188;-8.642;2023-05-20T05:30:34;3.80;;;2.93;;
20000;SDS011;10161;41.188;-8.642;2023-05-20T05:33:02;2.90;;;2.47;;
20000;SDS011;10161;41.188;-8.642;2023-05-20T05:35:31;4.53;;;2.93;;
20000;SDS011;10161;41.188;-8.642;2023-05-20T05:37:58;3.00;;;2.70;;
20000;SDS011;10161;41.188;-8.642;2023-05-20T05:40:28;4.63;;;2.70;;
20000;SDS011;10161;41.188;-8.642;2023-05-20T05:42:55;3.70;;;2.67;;
20000;SDS011;10161;41.188;-8.642;2023-05-20T05:45:22;3.73;;;3.00;;
20000;SDS011;10161;41.188;-8.642;2023-05-20T05:47:49;4.77;;;3.20;;
20000;SDS011;10161;41.188;-8.642;2023-05-20T05:50:16;2.67;;;2.47;;
20000;SDS011;10161;41.188;-8.642;2023-05-20T05:52:43;3.27;;;2.97;;
20000;SDS011;10161;41.188;-8.642;2023-05-20T05:55:10;3.97;;;2.60;;
20000;SDS011;10161;41.188;-8.642;2023-05-20T05:57:39;5.30;;;3.40;;
20000;SDS011;10161;41.188;-8.642;2023-05-20T06:00:06;4.20;;;2.77;;
20000;SDS011;10161;41.188;-8.642;2023-05-20T06:02:34;3.17;;;2.60;;
20000;SDS011;10161;41.188;-8.642;2023-05-20T06:05:02;4.77;;;2.97;;
20000;SDS011;10161;41.188;-8.642;2023-05-20T06:07:31;3.60;;;2.40;;
20000;SDS011;10161;41.188;-8.642;2023-05-20T06:09:58;4.27;;;2.43;;
20000;SDS011;10161;41.188;-8.642;2023-05-20T06:12:25;2.67;;;2.47;;
20000;SDS011;10161;41.188;-8.642;2023-05-20T06:14:55;3.00;;;2.60;;
20000;SDS011;10161;41.188;-8.642;2023-05-20T06:17:23;8.77;;;2.70;;
20000;SDS011;10161;41.188;-8.642;2023-05-20T06:19:51;4.50;;;2.80;;
20000;SDS011;10161;41.188;-8.642;2023-05-20T06:22:18;5.20;;;2.57;;
20000;SDS011;10161;41.188;-8.642;2023-05-20T06:24:45;4.20;;;3.23;;
20000;SDS011;10161;41.188;-8.642;2023-05-20T06:27:13;6.80;;;2.70;;
20000;SDS011;10161;41.188;-8.642;2023-05-20T06:29:40;4.77;;;2.93;;
20000;SDS011;10161;41.188;-8.642;2023-05-20T06:32:10;3.20;;;2.37;;
20000;SDS011;10161;41.188;-8.642;2023-05-20T06:34:39;3.13;;;2.63;;
20000;SDS011;10161;41.188;-8.642;2023-05-20T06:37:06;4.07;;;3.03;;
20000;SDS011;10161;41.188;-8.642;2023-05-20T06:39:34;4.23;;;2.70;;
20000;SDS011;10161;41.188;-8.642;2023-05-20T06:42:01;3.80;;;2.90;;
20000;SDS011;10161;41.188;-8.642;2023-05-20T06:44:30;3.40;;;2.50;;
20000;SDS011;10161;41.188;-8.642;2023-05-20T06:46:57;3.60;;;3.00;;
20000;SDS011;10161;41.188;-8.642;2023-05-20T06:49:25;3.60;;;2.70;;
20000;SDS011;10161;41.188;-8.642;2023-05-20T06:51:52;3.20;;;2.80;;
20000;SDS011;10161;41.188;-8.642;2023-05-20T06:54:19;3.23;;;2.47;;
20000;SDS011;10161;41.188;-8.642;2023-05-20T06:56:47;3.00;;;2.70;;
20000;SDS011;10161;41.188;-8.642;2023-05-20T06:59:14;3.13;;;2.57;;
20000;SDS011;10161;41.188;-8.642;2023-05-20T07:01:42;3.40;;;2.50;;
20000;SDS011;10161;41.188;-8.642;2023-05-20T07:04:08;5.30;;;2.20;;
20000;SDS011;10161;41.188;-8.642;2023-05-20T07:06:37;2.87;;;2.30;;
20000;SDS011;10161;41.188;-8.642;2023-05-20T07:09:04;4.00;;;3.00;;
20000;SDS011;10161;41.188;-8.642;2023-05-20T07:11:31;4.50;;;2.40;;
20000;SDS011;10161;41.188;-8.642;2023-05-20T07:13:59;3.70;;;2.90;;
20000;SDS011;10161;41.188;-8.642;2023-05-20T07:16:25;4.80;;;2.60;;
20000;SDS011;10161;41.188;-8.642;2023-05-20T07:18:53;3.00;;;2.40;;
20000;SDS011;10161;41.188;-8.642;2023-05-20T07:21:20;5.07;;;2.40;;
20000;SDS011;10161;41.188;-8.642;2023-05-20T07:23:49;4.50;;;2.60;;
20000;SDS011;10161;41.188;-8.642;2023-05-20T07:26:16;3.80;;;2.40;;
20000;SDS011;10161;41.188;-8.642;2023-05-20T07:28:43;4.00;;;2.80;;
20000;SDS011;10161;41.188;-8.642;2023-05-20T07:31:12;5.17;;;3.20;;
20000;SDS011;10161;41.188;-8.642;2023-05-20T07:33:40;4.33;;;2.87;;
20000;SDS011;10161;41.188;-8.642;2023-05-20T07:36:06;4.27;;;2.80;;
20000;SDS011;10161;41.188;-8.642;2023-05-20T07:38:35;3.00;;;2.70;;
20000;SDS011;10161;41.188;-8.642;2023-05-20T07:41:03;4.57;;;2.73;;
20000;SDS011;10161;41.188;-8.642;2023-05-20T07:43:30;4.23;;;3.00;;
20000;SDS011;10161;41.188;-8.642;2023-05-20T07:45:57;3.70;;;2.30;;
20000;SDS011;10161;41.188;-8.642;2023-05-20T07:48:25;4.50;;;2.80;;
20000;SDS011;10161;41.188;-8.642;2023-05-20T07:50:52;3.17;;;2.53;;
20000;SDS011;10161;41.188;-8.642;2023-05-20T07:53:21;3.27;;;2.90;;
20000;SDS011;10161;41.188;-8.642;2023-05-20T07:55:48;3.80;;;2.60;;
20000;SDS011;10161;41.188;-8.642;2023-05-20T07:58:19;9.30;;;3.20;;
20000;SDS011;10161;41.188;-8.642;2023-05-20T08:00:47;4.30;;;3.03;;
20000;SDS011;10161;41.188;-8.642;2023-05-20T08:03:15;6.73;;;3.17;;
20000;SDS011;10161;41.188;-8.642;2023-05-20T08:05:43;4.20;;;2.60;;
20000;SDS011;10161;41.188;-8.642;2023-05-20T08:08:10;4.27;;;2.97;;
20000;SDS011;10161;41.188;-8.642;2023-05-20T08:10:37;3.87;;;2.90;;
20000;SDS011;10161;41.188;-8.642;2023-05-20T08:13:04;4.13;;;2.63;;
20000;SDS011;10161;41.188;-8.642;2023-05-20T08:15:33;3.70;;;2.80;;
20000;SDS011;10161;41.188;-8.642;2023-05-20T08:18:01;6.53;;;2.57;;
20000;SDS011;10161;41.188;-8.642;2023-05-20T08:20:28;4.23;;;3.03;;
20000;SDS011;10161;41.188;-8.642;2023-05-20T08:22:56;3.90;;;2.77;;
20000;SDS011;10161;41.188;-8.642;2023-05-20T08:25:23;3.10;;;2.80;;
20000;SDS011;10161;41.188;-8.642;2023-05-20T08:27:51;5.50;;;3.20;;
20000;SDS011;10161;41.188;-8.642;2023-05-20T08:30:18;3.90;;;2.77;;
20000;SDS011;10161;41.188;-8.642;2023-05-20T08:32:46;7.50;;;3.27;;
20000;SDS011;10161;41.188;-8.642;2023-05-20T08:35:13;3.63;;;3.20;;
20000;SDS011;10161;41.188;-8.642;2023-05-20T08:37:40;3.93;;;2.97;;
20000;SDS011;10161;41.188;-8.642;2023-05-20T08:40:09;3.83;;;2.80;;
20000;SDS011;10161;41.188;-8.642;2023-05-20T08:42:39;6.07;;;3.33;;
20000;SDS011;10161;41.188;-8.642;2023-05-20T08:45:08;4.37;;;2.63;;
20000;SDS011;10161;41.188;-8.642;2023-05-20T08:47:40;3.00;;;2.60;;
20000;SDS011;10161;41.188;-8.642;2023-05-20T08:50:10;4.03;;;2.97;;
20000;SDS011;10161;41.188;-8.642;2023-05-20T08:52:39;3.93;;;3.00;;
20000;SDS011;10161;41.188;-8.642;2023-05-20T08:55:09;3.20;;;2.90;;
20000;SDS011;10161;41.188;-8.642;2023-05-20T08:57:39;4.70;;;3.07;;
20000;SDS011;10161;41.188;-8.642;2023-05-20T09:00:11;4.20;;;3.43;;
20000;SDS011;10161;41.188;-8.642;2023-05-20T09:02:41;4.63;;;2.70;;
20000;SDS011;10161;41.188;-8.642;2023-05-20T09:05:10;3.53;;;2.67;;
20000;SDS011;10161;41.188;-8.642;2023-05-20T09:07:39;5.97;;;3.80;;
20000;SDS011;10161;41.188;-8.642;2023-05-20T09:10:08;4.10;;;3.10;;
20000;SDS011;10161;41.188;-8.642;2023-05-20T09:12:36;4.73;;;3.00;;
20000;SDS011;10161;41.188;-8.642;2023-05-20T09:15:04;4.53;;;3.47;;
20000;SDS011;10161;41.188;-8.642;2023-05-20T09:17:33;3.70;;;2.87;;
20000;SDS011;10161;41.188;-8.642;2023-05-20T09:20:04;4.30;;;2.77;;
20000;SDS011;10161;41.188;-8.642;2023-05-20T09:22:35;3.00;;;2.77;;
20000;SDS011;10161;41.188;-8.642;2023-05-20T09:25:05;3.60;;;2.60;;
20000;SDS011;10161;41.188;-8.642;2023-05-20T09:27:34;3.30;;;3.00;;
20000;SDS011;10161;41.188;-8.642;2023-05-20T09:30:01;6.00;;;3.40;;
20000;SDS011;10161;41.188;-8.642;2023-05-20T09:32:33;5.63;;;3.33;;
20000;SDS011;10161;41.188;-8.642;2023-05-20T09:35:00;4.67;;;3.20;;
20000;SDS011;10161;41.188;-8.642;2023-05-20T09:37:29;4.50;;;3.10;;
20000;SDS011;10161;41.188;-8.642;2023-05-20T09:40:00;3.97;;;3.30;;
20000;SDS011;10161;41.188;-8.642;2023-05-20T09:42:37;4.27;;;3.20;;
20000;SDS011;10161;41.188;-8.642;2023-05-20T09:45:08;6.10;;;3.50;;
20000;SDS011;10161;41.188;-8.642;2023-05-20T09:47:37;3.80;;;2.90;;
20000;SDS011;10161;41.188;-8.642;2023-05-20T09:50:05;5.50;;;3.27;;
20000;SDS011;10161;41.188;-8.642;2023-05-20T09:52:33;3.80;;;3.07;;
20000;SDS011;10161;41.188;-8.642;2023-05-20T09:55:04;4.33;;;3.20;;
20000;SDS011;10161;41.188;-8.642;2023-05-20T09:57:33;6.63;;;3.57;;
20000;SDS011;10161;41.188;-8.642;2023-05-20T10:00:00;4.73;;;3.40;;
20000;SDS011;10161;41.188;-8.642;2023-05-20T10:02:30;5.33;;;3.57;;
20000;SDS011;10161;41.188;-8.642;2023-05-20T10:04:57;3.83;;;3.13;;
20000;SDS011;10161;41.188;-8.642;2023-05-20T10:07:30;3.97;;;3.20;;
20000;SDS011;10161;41.188;-8.642;2023-05-20T10:10:11;4.57;;;3.43;;
20000;SDS011;10161;41.188;-8.642;2023-05-20T10:12:45;4.63;;;3.20;;
20000;SDS011;10161;41.188;-8.642;2023-05-20T10:15:21;4.57;;;3.30;;
20000;SDS011;10161;41.188;-8.642;2023-05-20T10:17:54;3.23;;;2.93;;
20000;SDS011;10161;41.188;-8.642;2023-05-20T10:20:27;5.00;;;2.93;;
20000;SDS011;10161;41.188;-8.642;2023-05-20T10:22:56;4.60;;;3.10;;
20000;SDS011;10161;41.188;-8.642;2023-05-20T10:25:25;3.90;;;3.17;;
20000;SDS011;10161;41.188;-8.642;2023-05-20T10:28:02;4.43;;;3.20;;
20000;SDS011;10161;41.188;-8.642;2023-05-20T10:30:32;4.00;;;3.20;;
20000;SDS011;10161;41.188;-8.642;2023-05-20T10:33:02;4.53;;;3.10;;
20000;SDS011;10161;41.188;-8.642;2023-05-20T10:35:33;6.93;;;3.60;;
20000;SDS011;10161;41.188;-8.642;2023-05-20T10:38:06;4.37;;;3.37;;
20000;SDS011;10161;41.188;-8.642;2023-05-20T10:40:36;3.50;;;2.53;;
20000;SDS011;10161;41.188;-8.642;2023-05-20T10:43:08;4.30;;;3.33;;
20000;SDS011;10161;41.188;-8.642;2023-05-20T10:45:46;3.97;;;3.10;;
20000;SDS011;10161;41.188;-8.642;2023-05-20T10:48:18;4.20;;;3.30;;
20000;SDS011;10161;41.188;-8.642;2023-05-20T10:50:49;4.17;;;3.00;;
20000;SDS011;10161;41.188;-8.642;2023-05-20T10:53:20;9.33;;;3.37;;
20000;SDS011;10161;41.188;-8.642;2023-05-20T10:55:51;5.10;;;3.43;;
20000;SDS011;10161;41.188;-8.642;2023-05-20T10:58:19;5.20;;;3.30;;
20000;SDS011;10161;41.188;-8.642;2023-05-20T11:00:48;4.67;;;3.90;;
20000;SDS011;10161;41.188;-8.642;2023-05-20T11:03:16;3.53;;;3.13;;
20000;SDS011;10161;41.188;-8.642;2023-05-20T11:05:44;3.93;;;3.30;;
20000;SDS011;10161;41.188;-8.642;2023-05-20T11:08:14;3.87;;;3.03;;
20000;SDS011;10161;41.188;-8.642;2023-05-20T11:10:42;3.40;;;3.10;;
20000;SDS011;10161;41.188;-8.642;2023-05-20T11:13:12;3.60;;;3.27;;
20000;SDS011;10161;41.188;-8.642;2023-05-20T11:15:40;4.87;;;3.30;;
20000;SDS011;10161;41.188;-8.642;2023-05-20T11:18:09;7.37;;;3.30;;
20000;SDS011;10161;41.188;-8.642;2023-05-20T11:20:38;4.30;;;3.43;;
20000;SDS011;10161;41.188;-8.642;2023-05-20T11:23:05;6.70;;;2.97;;
20000;SDS011;10161;41.188;-8.642;2023-05-20T11:25:37;3.63;;;3.00;;
20000;SDS011;10161;41.188;-8.642;2023-05-20T11:28:08;6.93;;;3.30;;
20000;SDS011;10161;41.188;-8.642;2023-05-20T11:30:39;4.53;;;3.40;;
20000;SDS011;10161;41.188;-8.642;2023-05-20T11:33:10;4.13;;;3.70;;
20000;SDS011;10161;41.188;-8.642;2023-05-20T11:35:43;3.37;;;3.07;;
20000;SDS011;10161;41.188;-8.642;2023-05-20T11:38:12;3.90;;;3.00;;
20000;SDS011;10161;41.188;-8.642;2023-05-20T11:40:42;3.90;;;3.30;;
20000;SDS011;10161;41.188;-8.642;2023-05-20T11:43:11;5.10;;;3.33;;
20000;SDS011;10161;41.188;-8.642;2023-05-20T11:45:40;3.73;;;3.00;;
20000;SDS011;10161;41.188;-8.642;2023-05-20T11:48:09;9.07;;;4.37;;
20000;SDS011;10161;41.188;-8.642;2023-05-20T11:50:39;4.70;;;4.20;;
20000;SDS011;10161;41.188;-8.642;2023-05-20T11:53:07;5.13;;;4.63;;
20000;SDS011;10161;41.188;-8.642;2023-05-20T11:55:43;5.17;;;4.67;;
20000;SDS011;10161;41.188;-8.642;2023-05-20T11:58:14;4.33;;;3.90;;
20000;SDS011;10161;41.188;-8.642;2023-05-20T12:00:45;3.83;;;3.17;;
20000;SDS011;10161;41.188;-8.642;2023-05-20T12:03:13;4.50;;;4.10;;
20000;SDS011;10161;41.188;-8.642;2023-05-20T12:05:40;7.10;;;3.73;;
20000;SDS011;10161;41.188;-8.642;2023-05-20T12:08:08;6.10;;;4.10;;
20000;SDS011;10161;41.188;-8.642;2023-05-20T12:10:36;7.27;;;4.03;;
20000;SDS011;10161;41.188;-8.642;2023-05-20T12:13:03;5.10;;;3.10;;
20000;SDS011;10161;41.188;-8.642;2023-05-20T12:15:34;6.20;;;4.30;;
20000;SDS011;10161;41.188;-8.642;2023-05-20T12:18:02;6.30;;;3.87;;
20000;SDS011;10161;41.188;-8.642;2023-05-20T12:20:31;4.10;;;3.23;;
20000;SDS011;10161;41.188;-8.642;2023-05-20T12:22:58;4.17;;;3.20;;
20000;SDS011;10161;41.188;-8.642;2023-05-20T12:25:27;4.07;;;3.13;;
20000;SDS011;10161;41.188;-8.642;2023-05-20T12:27:54;5.30;;;2.80;;
20000;SDS011;10161;41.188;-8.642;2023-05-20T12:30:22;4.60;;;3.20;;
20000;SDS011;10161;41.188;-8.642;2023-05-20T12:32:49;5.13;;;3.77;;
20000;SDS011;10161;41.188;-8.642;2023-05-20T12:35:23;3.77;;;3.03;;
20000;SDS011;10161;41.188;-8.642;2023-05-20T12:37:50;5.10;;;4.07;;
20000;SDS011;10161;41.188;-8.642;2023-05-20T12:40:19;6.13;;;3.63;;
20000;SDS011;10161;41.188;-8.642;2023-05-20T12:42:47;4.60;;;4.17;;
20000;SDS011;10161;41.188;-8.642;2023-05-20T12:45:14;4.20;;;3.80;;
20000;SDS011;10161;41.188;-8.642;2023-05-20T12:47:42;3.97;;;3.57;;
20000;SDS011;10161;41.188;-8.642;2023-05-20T12:50:10;5.40;;;3.30;;
20000;SDS011;10161;41.188;-8.642;2023-05-20T12:52:39;4.10;;;2.90;;
20000;SDS011;10161;41.188;-8.642;2023-05-20T12:55:06;3.13;;;2.93;;
20000;SDS011;10161;41.188;-8.642;2023-05-20T12:57:40;3.43;;;3.13;;
20000;SDS011;10161;41.188;-8.642;2023-05-20T13:00:08;4.50;;;3.33;;
20000;SDS011;10161;41.188;-8.642;2023-05-20T13:02:36;5.33;;;3.13;;
20000;SDS011;10161;41.188;-8.642;2023-05-20T13:05:04;4.00;;;3.60;;
20000;SDS011;10161;41.188;-8.642;2023-05-20T13:07:31;5.23;;;3.60;;
20000;SDS011;10161;41.188;-8.642;2023-05-20T13:10:01;3.67;;;3.07;;
20000;SDS011;10161;41.188;-8.642;2023-05-20T13:12:30;3.77;;;3.07;;
20000;SDS011;10161;41.188;-8.642;2023-05-20T13:14:58;4.03;;;3.63;;
20000;SDS011;10161;41.188;-8.642;2023-05-20T13:17:26;4.00;;;3.60;;
20000;SDS011;10161;41.188;-8.642;2023-05-20T13:19:53;4.60;;;3.23;;
20000;SDS011;10161;41.188;-8.642;2023-05-20T13:22:23;3.87;;;3.30;;
20000;SDS011;10161;41.188;-8.642;2023-05-20T13:24:51;5.80;;;3.47;;
20000;SDS011;10161;41.188;-8.642;2023-05-20T13:27:20;4.40;;;3.10;;
20000;SDS011;10161;41.188;-8.642;2023-05-20T13:29:47;4.50;;;3.60;;
20000;SDS011;10161;41.188;-8.642;2023-05-20T13:32:14;8.80;;;3.60;;
20000;SDS011;10161;41.188;-8.642;2023-05-20T13:34:42;7.00;;;4.30;;
20000;SDS011;10161;41.188;-8.642;2023-05-20T13:37:09;5.53;;;3.60;;
20000;SDS011;10161;41.188;-8.642;2023-05-20T13:39:36;5.33;;;3.73;;
20000;SDS011;10161;41.188;-8.642;2023-05-20T13:42:03;5.17;;;3.13;;
20000;SDS011;10161;41.188;-8.642;2023-05-20T13:44:32;4.37;;;3.30;;
20000;SDS011;10161;41.188;-8.642;2023-05-20T13:46:59;5.27;;;3.50;;
20000;SDS011;10161;41.188;-8.642;2023-05-20T13:49:26;7.67;;;3.23;;
20000;SDS011;10161;41.188;-8.642;2023-05-20T13:51:54;3.87;;;3.10;;
20000;SDS011;10161;41.188;-8.642;2023-05-20T13:54:21;3.77;;;3.23;;
20000;SDS011;10161;41.188;-8.642;2023-05-20T13:56:48;4.00;;;3.33;;
20000;SDS011;10161;41.188;-8.642;2023-05-20T13:59:17;4.70;;;3.47;;
20000;SDS011;10161;41.188;-8.642;2023-05-20T14:01:46;4.20;;;3.23;;
20000;SDS011;10161;41.188;-8.642;2023-05-20T14:04:14;5.90;;;4.37;;
20000;SDS011;10161;41.188;-8.642;2023-05-20T14:06:42;3.80;;;3.07;;
20000;SDS011;10161;41.188;-8.642;2023-05-20T14:09:09;4.07;;;3.10;;
20000;SDS011;10161;41.188;-8.642;2023-05-20T14:11:37;3.80;;;3.23;;
20000;SDS011;10161;41.188;-8.642;2023-05-20T14:14:04;3.70;;;3.30;;
20000;SDS011;10161;41.188;-8.642;2023-05-20T14:16:31;5.70;;;3.87;;
20000;SDS011;10161;41.188;-8.642;2023-05-20T14:19:01;5.83;;;3.87;;
20000;SDS011;10161;41.188;-8.642;2023-05-20T14:21:28;4.00;;;3.50;;
20000;SDS011;10161;41.188;-8.642;2023-05-20T14:23:56;3.40;;;3.10;;
20000;SDS011;10161;41.188;-8.642;2023-05-20T14:26:23;4.27;;;3.40;;
20000;SDS011;10161;41.188;-8.642;2023-05-20T14:28:50;7.40;;;3.40;;
20000;SDS011;10161;41.188;-8.642;2023-05-20T14:31:17;4.67;;;3.17;;
20000;SDS011;10161;41.188;-8.642;2023-05-20T14:33:45;4.40;;;3.53;;
20000;SDS011;10161;41.188;-8.642;2023-05-20T14:36:15;7.33;;;3.30;;
20000;SDS011;10161;41.188;-8.642;2023-05-20T14:38:42;5.83;;;3.67;;
20000;SDS011;10161;41.188;-8.642;2023-05-20T14:41:11;5.37;;;3.87;;